APL Guam — WAPU — position and weather

sailwx.info

Track history (hours):
 
Tides and Currents Weather Stations Pressure Air Temp Water Temp Dewpoint Dewpoint Depression Visibility Wind Speed Wind Dir Waves Ship Positions

APL Guam

Owner: R & D Investments Inc, Jacksonville, FL. More information available from US FCC via Universal Licensing System and Coast Guard Vessel Documentation Center.

Last reported at 2017-Sep-23 00:00 UTC. Time now 2017-Sep-24 03:24 UTC.
Position N 28°06' E 131°00'.

Length 154 m; draft 7.2 m.

Type: Ship. MMSI: 367696080.

Wind from 270 at 16 knots

Barometer 1013.3 mb
Air temperature 28.0 ° C
Visibility: greater than 10.8 NM
Dewpoint 25.2 ° C

Date/timePositionNaut miles runAvg speedWind from/ knotsBaromVisibWave heightAir tempDewpointWater temp
2017-Sep-23 00:00N 28°06' E 131°00'21718.1 270 / 161013.310.8 28.025.2
2017-Sep-22 12:00N 30°24' E 134°12'19516.2 270 / 211017.010.8 23.021.5
2017-Sep-22 00:00N 32°30' E 137°06'18216.0 150 / 121020.710.8 26.019.9
2017-Sep-21 12:39N 34°44' E 139°33'319.4
2017-Sep-21 12:30N 34°47' E 139°35'917.7
2017-Sep-21 12:00N 34°55' E 139°39'815.6
2017-Sep-21 11:30N 35°02' E 139°42'612.7
2017-Sep-21 11:00N 35°08' E 139°44'611.3
2017-Sep-21 10:30N 35°14' E 139°46'612.0
2017-Sep-21 10:00N 35°19' E 139°43'611.5
2017-Sep-21 09:30N 35°25' E 139°42'2 3.4
2017-Sep-21 09:00N 35°26' E 139°41'0 0.0
2017-Sep-21 08:30N 35°26' E 139°41'0 0.0
2017-Sep-21 08:00N 35°26' E 139°41'0 0.0
2017-Sep-21 07:30N 35°26' E 139°41'0 0.0
2017-Sep-21 07:00N 35°26' E 139°41'0 0.0
2017-Sep-21 06:30N 35°26' E 139°41'0 0.0
2017-Sep-21 06:00N 35°26' E 139°41'0 0.0
2017-Sep-21 05:30N 35°26' E 139°41'0 0.0
2017-Sep-21 05:00N 35°26' E 139°41'0 0.0
2017-Sep-21 04:30N 35°26' E 139°41'0 0.0
2017-Sep-21 04:00N 35°26' E 139°41'0 0.0
2017-Sep-21 03:30N 35°26' E 139°41'0 0.0
2017-Sep-21 03:00N 35°26' E 139°41'0 0.0
2017-Sep-21 02:30N 35°26' E 139°41'0 0.0
2017-Sep-21 01:58N 35°26' E 139°41'0 0.0
2017-Sep-21 01:31N 35°26' E 139°41'0 0.0
2017-Sep-21 01:00N 35°26' E 139°41'0 0.0
2017-Sep-21 00:31N 35°26' E 139°41'0 0.0
2017-Sep-21 00:01N 35°26' E 139°41'0 0.0
2017-Sep-20 23:31N 35°26' E 139°41'0 0.0
2017-Sep-20 23:01N 35°26' E 139°41'1 2.1
2017-Sep-20 22:31N 35°26' E 139°42'5 9.3
2017-Sep-20 22:01N 35°22' E 139°43'611.3
2017-Sep-20 21:31N 35°17' E 139°46'611.2
2017-Sep-20 21:00N 35°11' E 139°46'4 8.0
2017-Sep-20 20:31N 35°07' E 139°46'5 9.1
2017-Sep-20 20:01N 35°03' E 139°45'611.2
2017-Sep-20 19:31N 34°57' E 139°42'510.6
2017-Sep-20 19:00N 34°52' E 139°42'1413.1
2017-Sep-20 17:54N 34°39' E 139°35'108 6.1
2017-Sep-20 00:00N 33°36' E 137°48'40 1.7 250 / 61018.610.8 30.024.3
2017-Sep-19 00:00N 33°36' E 137°00'   040 / 51019.310.8 26.021.5
2017-Sep-13 12:00N 25°18' E 135°24'   050 / 101020.210.8 29.026.2
Track history (hours):
 
Tides and Currents Weather Stations Pressure Air Temp Water Temp Dewpoint Dewpoint Depression Visibility Wind Speed Wind Dir Waves Ship Positions

APL Guam

Owner: R & D Investments Inc, Jacksonville, FL. More information available from US FCC via Universal Licensing System and Coast Guard Vessel Documentation Center.

Last reported at 2017-Sep-23 00:00 UTC. Time now 2017-Sep-24 03:24 UTC.
Position N 28°06' E 131°00'.

Length 154 m; draft 7.2 m.

Type: Ship. MMSI: 367696080.

Wind from 270 at 16 knots

Barometer 1013.3 mb
Air temperature 28.0 ° C
Visibility: greater than 10.8 NM
Dewpoint 25.2 ° C

Date/timePositionNaut miles runAvg speedWind from/ knotsBaromVisibWave heightAir tempDewpointWater temp
2017-Sep-23 00:00N 28°06' E 131°00'21718.1 270 / 161013.310.8 28.025.2
2017-Sep-22 12:00N 30°24' E 134°12'19516.2 270 / 211017.010.8 23.021.5
2017-Sep-22 00:00N 32°30' E 137°06'18216.0 150 / 121020.710.8 26.019.9
2017-Sep-21 12:39N 34°44' E 139°33'319.4
2017-Sep-21 12:30N 34°47' E 139°35'917.7
2017-Sep-21 12:00N 34°55' E 139°39'815.6
2017-Sep-21 11:30N 35°02' E 139°42'612.7
2017-Sep-21 11:00N 35°08' E 139°44'611.3
2017-Sep-21 10:30N 35°14' E 139°46'612.0
2017-Sep-21 10:00N 35°19' E 139°43'611.5
2017-Sep-21 09:30N 35°25' E 139°42'2 3.4
2017-Sep-21 09:00N 35°26' E 139°41'0 0.0
2017-Sep-21 08:30N 35°26' E 139°41'0 0.0
2017-Sep-21 08:00N 35°26' E 139°41'0 0.0
2017-Sep-21 07:30N 35°26' E 139°41'0 0.0
2017-Sep-21 07:00N 35°26' E 139°41'0 0.0
2017-Sep-21 06:30N 35°26' E 139°41'0 0.0
2017-Sep-21 06:00N 35°26' E 139°41'0 0.0
2017-Sep-21 05:30N 35°26' E 139°41'0 0.0
2017-Sep-21 05:00N 35°26' E 139°41'0 0.0
2017-Sep-21 04:30N 35°26' E 139°41'0 0.0
2017-Sep-21 04:00N 35°26' E 139°41'0 0.0
2017-Sep-21 03:30N 35°26' E 139°41'0 0.0
2017-Sep-21 03:00N 35°26' E 139°41'0 0.0
2017-Sep-21 02:30N 35°26' E 139°41'0 0.0
2017-Sep-21 01:58N 35°26' E 139°41'0 0.0
2017-Sep-21 01:31N 35°26' E 139°41'0 0.0
2017-Sep-21 01:00N 35°26' E 139°41'0 0.0
2017-Sep-21 00:31N 35°26' E 139°41'0 0.0
2017-Sep-21 00:01N 35°26' E 139°41'0 0.0
2017-Sep-20 23:31N 35°26' E 139°41'0 0.0
2017-Sep-20 23:01N 35°26' E 139°41'1 2.1
2017-Sep-20 22:31N 35°26' E 139°42'5 9.3
2017-Sep-20 22:01N 35°22' E 139°43'611.3
2017-Sep-20 21:31N 35°17' E 139°46'611.2
2017-Sep-20 21:00N 35°11' E 139°46'4 8.0
2017-Sep-20 20:31N 35°07' E 139°46'5 9.1
2017-Sep-20 20:01N 35°03' E 139°45'611.2
2017-Sep-20 19:31N 34°57' E 139°42'510.6
2017-Sep-20 19:00N 34°52' E 139°42'1413.1
2017-Sep-20 17:54N 34°39' E 139°35'108 6.1
2017-Sep-20 00:00N 33°36' E 137°48'40 1.7 250 / 61018.610.8 30.024.3
2017-Sep-19 00:00N 33°36' E 137°00'   040 / 51019.310.8 26.021.5
2017-Sep-13 12:00N 25°18' E 135°24'   050 / 101020.210.8 29.026.2

Dump ship's entire track history